EDT,Max TemperatureF,Mean TemperatureF,Min TemperatureF,Max Dew PointF,MeanDew PointF,Min DewpointF,Max Humidity, Mean Humidity, Min Humidity, Max Sea Level PressureIn, Mean Sea Level PressureIn, Min Sea Level PressureIn, Max VisibilityMiles, Mean VisibilityMiles, Min VisibilityMiles, Max Wind SpeedMPH, Mean Wind SpeedMPH, Max Gust SpeedMPH,PrecipitationIn, CloudCover, Events, WindDirDegrees
2013-8-1,78,70,61,68,64,58,94,86,64,30.07,29.96,29.88,10,8,3,15,3,17,0.12,4,Rain,160
2013-8-2,84,74,66,69,66,59,100,82,44,29.93,29.86,29.81,10,7,0,17,5,22,0.08,4,Fog-Rain,245
2013-8-3,78,70,64,68,65,61,90,79,66,29.92,29.90,29.87,10,10,8,14,6,20,0.02,3,Rain,246
2013-8-4,82,70,60,62,56,53,97,67,39,29.95,29.88,29.84,10,8,1,14,4,22,0.00,1,,324
2013-8-5,77,66,54,55,50,45,86,57,32,30.07,30.02,29.96,10,10,10,16,8,25,0.00,0,,317
2013-8-6,77,64,52,63,55,49,90,71,50,30.17,30.13,30.07,10,10,10,12,3,18,0.00,0,,149
2013-8-7,77,63,51,65,59,48,89,73,53,30.19,30.16,30.13,10,10,10,13,5,20,0.00,5,,141
2013-8-8,79,74,69,71,69,64,94,85,71,30.13,30.09,30.06,10,10,4,16,9,25,0.12,6,Rain,191
2013-8-9,80,76,73,74,72,70,94,91,84,30.07,29.94,29.83,10,8,4,16,10,30,0.03,6,Rain,198
2013-8-10,84,74,61,71,64,57,94,72,38,30.06,29.95,29.86,10,8,1,15,5,20,0.00,0,,289
2013-8-11,79,64,51,61,55,47,89,64,42,30.12,30.09,30.06,10,10,10,9,3,,0.00,2,,247
2013-8-12,77,68,62,72,65,60,96,88,71,30.06,30.00,29.96,10,6,0,8,2,,0.06,6,Fog-Rain,194
2013-8-13,73,66,60,71,64,59,100,93,79,29.96,29.82,29.70,10,3,0,12,2,20,0.94,6,Fog-Rain,82
2013-8-14,75,68,62,67,56,49,97,68,41,30.04,29.83,29.74,10,9,2,17,6,25,0.00,3,,312
2013-8-15,75,62,50,56,50,41,92,60,29,30.17,30.11,30.05,10,10,10,13,6,21,0.00,0,,261
2013-8-16,78,65,53,59,54,47,90,68,37,30.23,30.18,30.14,10,10,10,9,2,,0.00,2,,184
2013-8-17,82,66,51,60,54,49,93,70,38,30.30,30.27,30.23,10,10,10,8,2,,0.00,0,,62
2013-8-18,75,65,55,63,57,54,93,78,55,30.28,30.22,30.14,10,10,10,8,2,,0.01,2,Rain,87
2013-8-19,81,68,54,65,59,52,97,77,45,30.13,30.08,30.04,10,10,10,13,3,,0.00,0,,254
2013-8-20,86,68,53,66,58,52,100,82,36,30.15,30.11,30.05,10,6,0,10,1,22,0.00,1,Fog,265
2013-8-21,87,72,57,70,62,55,100,79,41,30.18,30.15,30.09,10,5,0,15,2,20,0.00,3,Fog,253
2013-8-22,77,73,69,72,70,66,96,90,76,30.09,30.00,29.89,10,7,2,16,7,21,0.13,5,Rain,224
2013-8-23,82,70,59,70,63,53,100,82,38,30.12,29.94,29.87,10,6,0,15,4,20,0.00,2,Fog,342
2013-8-24,78,64,50,57,53,47,90,67,40,30.38,30.27,30.13,10,10,10,13,6,17,0.00,0,,46
2013-8-25,79,62,46,62,54,43,93,69,42,30.40,30.34,30.26,10,10,10,12,3,16,0.00,0,,231
2013-8-26,77,72,68,69,64,57,97,78,62,30.25,30.08,29.95,10,8,2,18,11,25,0.31,4,Rain,230
2013-8-27,82,75,66,70,68,65,97,87,63,29.94,29.86,29.83,10,7,1,16,5,24,0.29,6,Rain,332
2013-8-28,84,71,60,72,65,59,100,90,60,29.92,29.90,29.88,10,5,0,7,1,,0.00,3,Fog,136
2013-8-29,77,69,63,70,65,60,100,88,67,30.06,29.99,29.91,10,6,0,14,6,16,0.01,7,Fog-Rain,65
2013-8-30,77,68,60,70,64,57,94,83,69,30.05,29.98,29.90,10,10,7,14,5,21,0.00,5,,220
2013-8-31,78,74,71,71,69,68,94,88,79,29.90,29.88,29.85,10,9,7,17,11,25,0.00,6,,222